Time;durP1;ratioP1;P1;durP2;ratioP2;P2;SDS_P1;SDS_P2;PMS_P1;PMS_P2;Temp;Humidity;BMP_temperature;BMP_pressure;BME280_temperature;BME280_humidity;BME280_pressure;Samples;Min_cycle;Max_cycle;Signal;HPM_P1;HPM_P2
2022/04/27 00:01:43;;;;;;;15.70;7.40;;;;;9.92;97373.00;;;;110326;1255;41152;-65
2022/04/27 00:04:13;;;;;;;13.70;6.60;;;;;10.00;97366.20;;;;110374;1254;41188;-65
2022/04/27 00:06:43;;;;;;;16.40;6.40;;;;;10.00;97369.20;;;;110246;1255;41991;-65
2022/04/27 00:09:13;;;;;;;11.50;6.00;;;;;10.00;97369.20;;;;110477;1255;41230;-65
2022/04/27 00:11:43;;;;;;;12.80;5.80;;;;;10.00;97365.00;;;;110586;1253;41171;-65
2022/04/27 00:14:13;;;;;;;12.20;5.20;;;;;10.00;97372.80;;;;110462;1253;42777;-66
2022/04/27 00:16:44;;;;;;;13.00;4.80;;;;;10.00;97372.20;;;;110380;1253;41270;-64
2022/04/27 00:19:14;;;;;;;9.30;4.40;;;;;10.00;97375.00;;;;110443;1253;42143;-65
2022/04/27 00:21:45;;;;;;;9.80;4.80;;;;;10.00;97378.20;;;;110427;1254;41270;-65
2022/04/27 00:24:15;;;;;;;10.30;4.40;;;;;9.90;97376.60;;;;110431;1253;41158;-65
2022/04/27 00:26:45;;;;;;;8.20;4.00;;;;;9.90;97373.00;;;;110468;1254;41147;-64
2022/04/27 00:29:15;;;;;;;9.30;4.00;;;;;9.90;97372.00;;;;110303;1255;41166;-65
2022/04/27 00:31:45;;;;;;;13.20;5.20;;;;;9.90;97378.40;;;;110405;1253;41292;-64
2022/04/27 00:34:15;;;;;;;12.00;5.60;;;;;9.90;97378.00;;;;110327;1254;42094;-65
2022/04/27 00:36:44;;;;;;;11.40;5.50;;;;;9.80;97376.00;;;;110522;1253;42437;-64
2022/04/27 00:39:14;;;;;;;12.20;5.30;;;;;9.82;97372.80;;;;110401;1253;41158;-64
2022/04/27 00:41:59;;;;;;;12.30;5.70;;;;;9.82;97373.40;;;;110376;1253;41645;-64
2022/04/27 00:44:30;;;;;;;10.40;4.80;;;;;9.80;97365.60;;;;110502;1252;41146;-64
2022/04/27 00:47:01;;;;;;;10.50;4.50;;;;;9.80;97368.80;;;;110489;1253;41156;-64
2022/04/27 00:49:32;;;;;;;10.80;4.40;;;;;9.80;97366.20;;;;110584;1251;41245;-65
2022/04/27 00:52:02;;;;;;;11.10;4.80;;;;;9.80;97370.80;;;;110509;1253;41616;-64
2022/04/27 00:54:34;;;;;;;11.30;5.70;;;;;9.80;97372.00;;;;110525;1254;41612;-64
2022/04/27 00:57:04;;;;;;;10.40;5.00;;;;;9.80;97372.20;;;;110522;1254;41220;-65
2022/04/27 00:59:35;;;;;;;11.80;6.20;;;;;9.80;97370.00;;;;110584;1253;41134;-65
2022/04/27 01:02:05;;;;;;;;;;;;;9.80;97368.60;;;;110534;1254;41135;-65
2022/04/27 01:04:36;;;;;;;11.50;5.20;;;;;9.80;97366.80;;;;110538;1253;41626;-65
2022/04/27 01:07:07;;;;;;;10.30;5.20;;;;;9.80;97361.40;;;;110519;1252;41252;-65
2022/04/27 01:09:37;;;;;;;10.90;4.70;;;;;9.88;97361.40;;;;110609;1253;41147;-65
2022/04/27 01:12:08;;;;;;;11.20;4.80;;;;;9.90;97361.20;;;;110443;1254;41157;-65
2022/04/27 01:14:50;;;;;;;9.60;4.60;;;;;9.90;97362.60;;;;110589;1251;41720;-65
2022/04/27 01:17:24;;;;;;;8.20;3.80;;;;;9.90;97367.40;;;;110573;1254;41263;-65
2022/04/27 01:19:54;;;;;;;8.80;3.80;;;;;9.90;97373.40;;;;110538;1253;41170;-65
2022/04/27 01:22:24;;;;;;;8.50;3.60;;;;;9.90;97368.40;;;;110575;1253;41949;-64
2022/04/27 01:24:56;;;;;;;8.90;3.70;;;;;9.84;97368.40;;;;110503;1253;41199;-65
2022/04/27 01:27:26;;;;;;;11.70;5.70;;;;;9.80;97368.60;;;;110606;1253;41146;-64
2022/04/27 01:29:56;;;;;;;11.00;4.80;;;;;9.80;97364.00;;;;110581;1253;41303;-64
2022/04/27 01:32:27;;;;;;;9.10;4.20;;;;;9.70;97357.40;;;;110559;1253;41728;-65
2022/04/27 01:34:57;;;;;;;10.70;5.30;;;;;9.70;97358.00;;;;110491;1253;42468;-65
2022/04/27 01:40:16;;;;;;;12.90;5.90;;;;;9.52;97348.60;;;;110525;1253;41155;-64
2022/04/27 01:42:48;;;;;;;9.90;4.90;;;;;9.40;97350.00;;;;110572;1254;41250;-65
2022/04/27 01:45:18;;;;;;;9.70;4.20;;;;;9.32;97352.40;;;;110499;1253;42443;-64
2022/04/27 01:47:48;;;;;;;8.00;3.80;;;;;9.30;97349.40;;;;110478;1255;41181;-64
2022/04/27 01:50:18;;;;;;;7.70;3.50;;;;;9.20;97347.00;;;;110587;1253;42010;-64
2022/04/27 01:55:38;;;;;;;7.70;3.40;;;;;9.12;97356.60;;;;110408;1254;42404;-65
2022/04/27 01:58:08;;;;;;;9.60;3.80;;;;;9.10;97360.00;;;;110240;1254;41597;-64
2022/04/27 02:00:39;;;;;;;10.00;3.80;;;;;9.10;97361.40;;;;110417;1253;42166;-65
2022/04/27 02:03:10;;;;;;;7.00;3.20;;;;;9.10;97361.40;;;;110283;1255;41735;-64
2022/04/27 02:05:40;;;;;;;7.90;3.30;;;;;9.10;97355.80;;;;110414;1253;42440;-64
2022/04/27 02:08:11;;;;;;;8.70;3.10;;;;;9.08;97352.80;;;;110532;1253;41156;-64
2022/04/27 02:10:41;;;;;;;9.60;3.80;;;;;9.00;97347.80;;;;110482;1254;41740;-65
2022/04/27 02:13:12;;;;;;;13.80;5.60;;;;;9.00;97349.60;;;;110541;1253;42477;-65
2022/04/27 02:15:43;;;;;;;12.00;5.80;;;;;9.00;97350.40;;;;110557;1252;41303;-65
2022/04/27 02:18:20;;;;;;;10.70;4.50;;;;;8.90;97352.00;;;;110584;1253;41185;-65
2022/04/27 02:20:52;;;;;;;9.10;4.20;;;;;8.90;97351.00;;;;110509;1253;41366;-65
2022/04/27 02:23:22;;;;;;;8.60;3.80;;;;;8.90;97350.40;;;;110530;1254;41193;-65
2022/04/27 02:25:55;;;;;;;9.40;4.40;;;;;8.90;97349.80;;;;110546;1253;41147;-65
2022/04/27 02:28:26;;;;;;;7.50;3.40;;;;;8.96;97351.40;;;;110584;1253;40721;-65
2022/04/27 02:30:57;;;;;;;8.70;3.40;;;;;9.00;97348.80;;;;110387;1254;41343;-65
2022/04/27 02:33:30;;;;;;;8.40;3.60;;;;;9.00;97353.40;;;;110567;1253;41170;-64
2022/04/27 02:36:00;;;;;;;7.10;2.90;;;;;9.00;97348.20;;;;110534;1251;41131;-64
2022/04/27 02:38:30;;;;;;;7.80;3.60;;;;;9.00;97350.40;;;;110482;1253;41739;-65
2022/04/27 02:41:04;;;;;;;7.70;3.40;;;;;9.00;97350.80;;;;110540;1253;41215;-65
2022/04/27 02:43:34;;;;;;;7.60;3.20;;;;;9.08;97354.80;;;;110527;1254;41267;-64
2022/04/27 02:46:05;;;;;;;9.80;3.70;;;;;9.10;97346.20;;;;110454;1253;41148;-65
2022/04/27 02:48:35;;;;;;;9.40;4.20;;;;;9.10;97356.00;;;;110233;1253;41665;-65
2022/04/27 02:53:55;;;;;;;9.90;4.00;;;;;9.12;97365.40;;;;110490;1253;41266;-65
2022/04/27 02:56:26;;;;;;;9.10;3.70;;;;;9.20;97365.60;;;;110363;1254;41482;-64
2022/04/27 02:58:58;;;;;;;9.20;3.70;;;;;9.20;97364.00;;;;110400;1254;41148;-64
2022/04/27 03:01:27;;;;;;;9.00;3.50;;;;;9.20;97366.00;;;;110544;1253;41877;-65
2022/04/27 03:03:58;;;;;;;11.20;4.40;;;;;9.20;97362.60;;;;110586;1253;41253;-65
2022/04/27 03:06:29;;;;;;;9.30;3.90;;;;;9.20;97364.60;;;;110570;1253;41609;-65
2022/04/27 03:08:59;;;;;;;11.00;4.70;;;;;9.10;97367.20;;;;110547;1251;41298;-65
2022/04/27 03:11:29;;;;;;;10.90;4.70;;;;;9.10;97369.60;;;;110537;1253;42209;-65
2022/04/27 03:14:22;;;;;;;10.70;4.90;;;;;9.08;97377.80;;;;110587;1253;41138;-65
2022/04/27 03:16:54;;;;;;;8.70;4.10;;;;;9.00;97374.80;;;;110517;1253;41637;-65
2022/04/27 03:19:25;;;;;;;9.90;4.10;;;;;8.90;97374.00;;;;110622;1253;41254;-65
2022/04/27 03:21:55;;;;;;;15.10;6.10;;;;;8.90;97375.00;;;;110605;1253;41294;-65
2022/04/27 03:24:26;;;;;;;20.20;7.60;;;;;8.90;97377.80;;;;110582;1254;41156;-65
2022/04/27 03:27:06;;;;;;;18.40;6.70;;;;;8.90;97381.20;;;;110505;1253;41478;-65
2022/04/27 03:29:36;;;;;;;16.10;6.10;;;;;8.80;97385.20;;;;110559;1253;41142;-65
2022/04/27 03:32:06;;;;;;;12.00;5.20;;;;;8.80;97396.20;;;;110484;1253;41367;-64
2022/04/27 03:34:37;;;;;;;10.40;4.60;;;;;8.80;97409.60;;;;110471;1253;41614;-65
2022/04/27 03:37:08;;;;;;;14.60;5.10;;;;;8.80;97407.00;;;;110380;1252;41885;-65
2022/04/27 03:39:37;;;;;;;15.50;5.50;;;;;8.80;97410.80;;;;110475;1253;41650;-65
2022/04/27 03:42:15;;;;;;;12.40;4.70;;;;;8.90;97416.40;;;;110510;1253;41266;-66
2022/04/27 03:44:47;;;;;;;11.70;4.70;;;;;9.00;97418.20;;;;110446;1253;41140;-65
2022/04/27 03:47:21;;;;;;;11.40;5.00;;;;;9.10;97420.40;;;;110479;1253;41259;-65
2022/04/27 03:49:51;;;;;;;12.30;6.10;;;;;9.20;97424.00;;;;110510;1254;41271;-65
2022/04/27 03:52:21;;;;;;;11.40;5.20;;;;;9.28;97419.20;;;;110256;1254;41263;-64
2022/04/27 03:54:52;;;;;;;10.60;4.40;;;;;9.32;97420.40;;;;110585;1253;41818;-65
2022/04/27 03:57:21;;;;;;;9.30;4.00;;;;;9.40;97424.00;;;;110573;1253;41157;-66
2022/04/27 03:59:51;;;;;;;10.30;4.80;;;;;9.50;97420.60;;;;110368;1254;41326;-64
2022/04/27 04:02:22;;;;;;;18.00;6.80;;;;;9.60;97425.60;;;;110443;1254;41267;-65
2022/04/27 04:04:52;;;;;;;13.90;6.20;;;;;9.60;97434.80;;;;110576;1253;42472;-65
2022/04/27 04:07:22;;;;;;;18.90;8.10;;;;;9.60;97441.00;;;;110508;1253;41297;-64
2022/04/27 04:09:56;;;;;;;17.40;6.90;;;;;9.54;97441.80;;;;110301;1254;41482;-65
2022/04/27 04:12:25;;;;;;;16.00;5.70;;;;;9.60;97435.20;;;;110484;1252;41615;-65
2022/04/27 04:15:17;;;;;;;18.00;6.00;;;;;9.80;97440.60;;;;110473;1253;41161;-64
2022/04/27 04:18:13;;;;;;;18.60;6.10;;;;;9.82;97444.60;;;;110256;1253;41722;-64
2022/04/27 04:21:07;;;;;;;15.50;6.30;;;;;10.06;97411.60;;;;110443;1254;41701;-65
2022/04/27 04:23:49;;;;;;;16.50;6.20;;;;;10.80;97438.80;;;;110434;1254;41258;-64
2022/04/27 04:29:07;;;;;;;8.10;3.90;;;;;11.50;97436.60;;;;110318;1255;41161;-65
2022/04/27 04:31:36;;;;;;;16.20;5.50;;;;;11.60;97440.80;;;;110278;1253;41183;-64
2022/04/27 04:34:23;;;;;;;10.10;4.10;;;;;11.42;97428.20;;;;110584;1253;41279;-64
2022/04/27 04:36:52;;;;;;;13.40;4.00;;;;;11.80;97433.80;;;;110542;1254;41276;-65
2022/04/27 04:39:21;;;;;;;10.10;3.80;;;;;12.22;97401.60;;;;110359;1253;41274;-65
2022/04/27 04:41:52;;;;;;;9.60;4.20;;;;;13.16;97408.00;;;;110620;1253;41166;-65
2022/04/27 04:44:21;;;;;;;11.70;3.90;;;;;14.00;97415.40;;;;110499;1251;41151;-65
2022/04/27 04:47:22;;;;;;;;;;;;;15.00;97407.00;;;;110314;1254;41400;-64
2022/04/27 04:50:12;;;;;;;12.00;3.70;;;;;15.94;97408.40;;;;110477;1253;41143;-64
2022/04/27 04:52:57;;;;;;;7.20;3.30;;;;;16.82;97402.80;;;;110579;1253;41610;-64
2022/04/27 04:55:57;;;;;;;8.90;3.50;;;;;17.56;97407.00;;;;110507;1252;41296;-64
2022/04/27 04:58:48;;;;;;;;;;;;;18.20;97409.20;;;;110484;1254;41175;-65
2022/04/27 05:01:44;;;;;;;7.50;3.20;;;;;18.84;97408.40;;;;110205;1255;41760;-64
2022/04/27 05:04:37;;;;;;;6.30;2.80;;;;;18.90;97405.40;;;;110362;1253;41466;-65
2022/04/27 05:07:18;;;;;;;5.30;2.50;;;;;19.06;97409.60;;;;110591;1252;41318;-66
2022/04/27 05:10:04;;;;;;;5.90;2.60;;;;;19.22;97405.40;;;;110508;1253;42083;-64
2022/04/27 05:12:49;;;;;;;6.30;2.80;;;;;19.70;97408.00;;;;110535;1254;41259;-65
2022/04/27 05:15:41;;;;;;;7.00;2.50;;;;;20.30;97409.00;;;;110419;1253;42363;-65
2022/04/27 05:18:42;;;;;;;4.90;2.40;;;;;20.66;97407.00;;;;110594;1251;41174;-65
2022/04/27 05:21:30;;;;;;;8.20;2.50;;;;;21.24;97411.40;;;;110540;1254;41678;-66
2022/04/27 05:24:12;;;;;;;5.40;2.50;;;;;21.70;97408.80;;;;110493;1253;41900;-65
2022/04/27 05:27:00;;;;;;;7.10;2.60;;;;;22.10;97409.20;;;;110564;1253;41600;-65
2022/04/27 05:33:13;;;;;;;7.00;2.70;;;;;22.10;97403.20;;;;110337;1253;41274;-65
2022/04/27 05:36:03;;;;;;;6.60;2.90;;;;;21.90;97410.20;;;;110337;1254;41282;-65
2022/04/27 05:38:58;;;;;;;6.40;2.80;;;;;21.10;97415.60;;;;110344;1253;41267;-65
2022/04/27 05:41:37;;;;;;;6.30;2.70;;;;;20.50;97422.40;;;;110204;1254;41290;-66
2022/04/27 05:44:22;;;;;;;7.80;2.90;;;;;20.46;97421.20;;;;110377;1253;41290;-65
2022/04/27 05:47:17;;;;;;;8.70;2.80;;;;;20.10;97446.00;;;;110490;1253;41266;-68
2022/04/27 05:49:59;;;;;;;6.90;2.80;;;;;19.54;97436.40;;;;110432;1253;41970;-66
2022/04/27 05:52:49;;;;;;;7.20;2.60;;;;;19.64;97433.60;;;;110501;1253;41254;-64
2022/04/27 05:55:43;;;;;;;6.40;2.70;;;;;20.06;97438.80;;;;110177;1255;41426;-65
2022/04/27 05:58:31;;;;;;;6.00;2.70;;;;;20.30;97441.00;;;;110404;1253;41382;-66
2022/04/27 06:01:16;;;;;;;7.20;2.50;;;;;20.30;97440.20;;;;110415;1255;41275;-68
2022/04/27 06:04:03;;;;;;;6.50;2.50;;;;;20.50;97461.00;;;;110573;1254;41156;-66
2022/04/27 06:06:35;;;;;;;5.90;2.20;;;;;20.30;97455.60;;;;110267;1256;41159;-66
2022/04/27 06:09:07;;;;;;;5.40;2.30;;;;;20.30;97456.00;;;;110351;1256;42435;-65
2022/04/27 06:12:07;;;;;;;6.00;2.40;;;;;20.98;97449.80;;;;110104;1256;41272;-66
2022/04/27 06:14:45;;;;;;;6.50;2.30;;;;;21.80;97450.60;;;;110511;1254;42474;-67
2022/04/27 06:17:32;;;;;;;6.60;2.30;;;;;22.74;97450.80;;;;110499;1253;41614;-66
2022/04/27 06:20:03;;;;;;;;;;;;;23.40;97454.60;;;;110564;1253;41622;-66
2022/04/27 06:22:32;;;;;;;7.20;2.40;;;;;23.86;97456.20;;;;110419;1253;41181;-67
2022/04/27 06:25:07;;;;;;;5.20;2.30;;;;;24.30;97458.40;;;;110317;1255;41192;-64
2022/04/27 06:27:43;;;;;;;4.20;1.90;;;;;24.78;97449.40;;;;109958;1253;716959;-65
2022/04/27 06:30:13;;;;;;;4.60;2.10;;;;;25.18;97457.00;;;;110521;1253;41165;-66
2022/04/27 06:32:42;;;;;;;4.90;1.90;;;;;25.50;97452.40;;;;110443;1253;41144;-66
2022/04/27 06:35:15;;;;;;;4.70;2.20;;;;;25.70;97462.20;;;;110412;1253;41930;-66
2022/04/27 06:37:47;;;;;;;6.20;2.10;;;;;25.54;97461.60;;;;110477;1253;41214;-66
2022/04/27 06:40:18;;;;;;;5.30;2.20;;;;;25.14;97461.40;;;;110563;1253;41900;-67
2022/04/27 06:42:47;;;;;;;6.40;2.40;;;;;25.02;97463.80;;;;110755;1251;41516;-66
2022/04/27 06:45:43;;;;;;;6.30;2.50;;;;;25.12;97456.40;;;;110469;1253;41282;-66
2022/04/27 06:48:35;;;;;;;6.90;2.30;;;;;25.10;97458.80;;;;110397;1253;42399;-66
2022/04/27 06:51:22;;;;;;;5.80;2.20;;;;;25.28;97456.20;;;;110456;1253;41162;-66
2022/04/27 06:54:10;;;;;;;4.40;1.80;;;;;25.50;97458.80;;;;110534;1253;41805;-65
2022/04/27 06:56:59;;;;;;;3.60;1.80;;;;;25.72;97460.20;;;;110512;1254;41252;-67
2022/04/27 06:59:46;;;;;;;5.00;2.20;;;;;26.30;97461.60;;;;110496;1253;42538;-65
2022/04/27 07:02:16;;;;;;;3.10;1.60;;;;;26.80;97462.40;;;;110473;1255;41510;-64
2022/04/27 07:04:51;;;;;;;3.50;1.70;;;;;27.50;97462.20;;;;110428;1253;41372;-66
2022/04/27 07:07:20;;;;;;;5.90;1.70;;;;;27.80;97454.80;;;;110460;1253;41489;-67
2022/04/27 07:09:49;;;;;;;3.90;1.80;;;;;28.20;97460.20;;;;110521;1253;41659;-66
2022/04/27 07:12:18;;;;;;;3.20;1.70;;;;;28.68;97458.20;;;;110589;1252;41175;-66
2022/04/27 07:14:48;;;;;;;3.20;1.40;;;;;29.00;97458.40;;;;110565;1254;41283;-66
2022/04/27 07:17:18;;;;;;;5.30;1.80;;;;;28.96;97456.20;;;;110582;1253;41356;-66
2022/04/27 07:19:47;;;;;;;4.90;1.90;;;;;28.60;97457.60;;;;110461;1253;41270;-66
2022/04/27 07:22:16;;;;;;;5.50;1.80;;;;;28.40;97459.20;;;;110575;1254;41846;-67
2022/04/27 07:24:45;;;;;;;4.80;1.70;;;;;28.30;97464.20;;;;110515;1253;41151;-66
2022/04/27 07:27:14;;;;;;;4.00;1.80;;;;;28.44;97460.00;;;;110501;1253;41677;-66
2022/04/27 07:29:44;;;;;;;3.60;1.60;;;;;28.60;97460.20;;;;110424;1253;41612;-65
2022/04/27 07:32:13;;;;;;;4.90;1.80;;;;;28.84;97460.40;;;;110557;1253;41199;-67
2022/04/27 07:34:42;;;;;;;4.10;1.70;;;;;29.02;97463.40;;;;110427;1253;41511;-67
2022/04/27 07:37:12;;;;;;;4.00;1.80;;;;;29.00;97466.80;;;;110554;1253;41778;-64
2022/04/27 07:39:41;;;;;;;4.70;1.70;;;;;29.10;97467.80;;;;110482;1253;41598;-67
2022/04/27 07:42:10;;;;;;;5.40;1.90;;;;;29.20;97473.80;;;;110440;1253;41618;-67
2022/04/27 07:44:39;;;;;;;4.70;1.90;;;;;29.12;97467.40;;;;110460;1253;41165;-67
2022/04/27 07:47:09;;;;;;;4.70;1.60;;;;;28.62;97468.20;;;;110501;1253;41158;-66
2022/04/27 07:49:38;;;;;;;4.80;1.70;;;;;28.50;97470.20;;;;110548;1253;41156;-67
2022/04/27 07:52:08;;;;;;;3.50;1.40;;;;;28.06;97467.20;;;;110498;1253;41616;-66
2022/04/27 07:54:37;;;;;;;3.50;1.50;;;;;28.18;97468.60;;;;110511;1253;41259;-66
2022/04/27 07:57:06;;;;;;;4.40;1.70;;;;;28.66;97463.80;;;;110557;1253;41655;-65
2022/04/27 07:59:35;;;;;;;4.50;1.60;;;;;29.46;97460.20;;;;110543;1253;42028;-66
2022/04/27 08:02:06;;;;;;;3.30;1.40;;;;;29.72;97455.80;;;;110507;1253;41168;-65
2022/04/27 08:04:35;;;;;;;4.20;1.40;;;;;29.90;97459.40;;;;110441;1253;41196;-66
2022/04/27 08:07:04;;;;;;;3.50;1.30;;;;;29.86;97461.60;;;;110600;1253;42598;-64
2022/04/27 08:09:33;;;;;;;2.90;1.30;;;;;30.10;97458.60;;;;110603;1253;41248;-66
2022/04/27 08:12:04;;;;;;;1.90;1.20;;;;;30.18;97455.40;;;;110661;1253;41127;-69
2022/04/27 08:14:34;;;;;;;4.00;1.30;;;;;30.40;97459.00;;;;110473;1252;41143;-68
2022/04/27 08:17:04;;;;;;;3.00;1.40;;;;;30.50;97448.40;;;;110535;1253;41597;-67
2022/04/27 08:19:33;;;;;;;2.30;1.30;;;;;30.80;97451.00;;;;110482;1253;41156;-69
2022/04/27 08:22:06;;;;;;;2.30;1.40;;;;;31.46;97448.20;;;;110507;1253;41283;-69
2022/04/27 08:24:40;;;;;;;3.90;1.30;;;;;30.74;97448.00;;;;110407;1254;41157;-66
2022/04/27 08:27:09;;;;;;;2.30;1.40;;;;;30.36;97454.00;;;;110579;1253;41164;-68
2022/04/27 08:29:38;;;;;;;3.80;1.60;;;;;30.90;97453.40;;;;110566;1251;41559;-68
2022/04/27 08:32:08;;;;;;;4.00;1.70;;;;;30.24;97451.20;;;;110584;1253;41447;-68
2022/04/27 08:34:37;;;;;;;2.60;1.30;;;;;29.68;97452.60;;;;110658;1254;41734;-68
2022/04/27 08:37:06;;;;;;;3.50;1.60;;;;;29.40;97456.20;;;;110546;1253;41705;-67
2022/04/27 08:39:35;;;;;;;2.90;1.60;;;;;29.32;97454.80;;;;110560;1253;41259;-68
2022/04/27 08:42:05;;;;;;;3.10;1.40;;;;;28.92;97452.20;;;;110549;1253;41266;-68
2022/04/27 08:44:34;;;;;;;2.80;1.40;;;;;29.46;97445.60;;;;110571;1253;41178;-68
2022/04/27 08:47:05;;;;;;;4.70;1.40;;;;;30.20;97438.80;;;;110408;1255;41266;-69
2022/04/27 08:49:34;;;;;;;;;;;;;30.90;97444.20;;;;110502;1253;41138;-69
2022/04/27 08:52:06;;;;;;;4.80;1.50;;;;;31.02;97437.20;;;;110583;1252;41452;-68
2022/04/27 08:54:35;;;;;;;3.40;1.50;;;;;30.56;97444.20;;;;110551;1251;41521;-69
2022/04/27 08:57:05;;;;;;;1.60;1.30;;;;;28.88;97455.40;;;;110551;1253;41146;-65
2022/04/27 08:59:34;;;;;;;3.10;1.60;;;;;27.92;97455.20;;;;110588;1251;41264;-68
2022/04/27 09:02:23;;;;;;;1.90;1.30;;;;;27.82;97453.20;;;;110562;1253;41715;-67
2022/04/27 09:05:26;;;;;;;2.90;1.30;;;;;27.80;97454.20;;;;110572;1253;42091;-65
2022/04/27 09:07:56;;;;;;;2.70;1.60;;;;;27.70;97448.20;;;;109991;1259;41917;-67
2022/04/27 09:10:27;;;;;;;3.30;1.50;;;;;27.38;97448.40;;;;109796;1260;41287;-67
2022/04/27 09:12:57;;;;;;;4.90;1.50;;;;;27.34;97442.00;;;;110089;1260;41162;-67
2022/04/27 09:15:26;;;;;;;2.70;1.30;;;;;28.06;97433.60;;;;109842;1261;41959;-65
2022/04/27 09:20:48;;;;;;;3.30;1.60;;;;;29.52;97432.60;;;;109848;1261;41215;-69
2022/04/27 09:23:24;;;;;;;4.10;1.70;;;;;29.30;97433.80;;;;109947;1260;42408;-66
2022/04/27 09:25:57;;;;;;;3.90;1.70;;;;;29.54;97438.80;;;;109993;1260;41157;-64
2022/04/27 09:28:31;;;;;;;2.50;1.50;;;;;29.26;97431.20;;;;109828;1261;41195;-65
2022/04/27 09:31:01;;;;;;;3.20;1.60;;;;;29.20;97433.20;;;;110027;1261;42133;-66
2022/04/27 09:33:37;;;;;;;3.50;1.50;;;;;29.50;97425.80;;;;109447;1262;41313;-65
2022/04/27 09:36:25;;;;;;;2.30;1.30;;;;;29.30;97424.00;;;;109965;1261;42122;-69
2022/04/27 09:38:56;;;;;;;3.80;1.40;;;;;29.30;97427.20;;;;110044;1260;42432;-70
2022/04/27 09:41:42;;;;;;;2.50;1.40;;;;;29.48;97432.00;;;;109638;1260;41953;-69
2022/04/27 09:44:33;;;;;;;4.10;1.50;;;;;29.30;97424.40;;;;110218;1256;41406;-68
2022/04/27 09:47:03;;;;;;;2.80;1.50;;;;;29.86;97418.80;;;;110484;1253;41706;-69
2022/04/27 09:49:32;;;;;;;;;;;;;30.38;97419.80;;;;110494;1255;41143;-69
2022/04/27 09:52:03;;;;;;;3.30;1.50;;;;;30.26;97423.20;;;;110550;1253;41673;-67
2022/04/27 09:54:36;;;;;;;5.50;2.00;;;;;30.18;97419.40;;;;110489;1253;41143;-70
2022/04/27 09:57:09;;;;;;;5.00;1.70;;;;;29.68;97425.60;;;;110341;1255;41814;-68
2022/04/27 09:59:38;;;;;;;3.60;1.50;;;;;28.48;97428.80;;;;110502;1253;41139;-70
2022/04/27 10:02:10;;;;;;;3.20;1.60;;;;;28.48;97429.40;;;;110341;1256;42295;-68
2022/04/27 10:04:40;;;;;;;2.40;1.40;;;;;28.24;97429.60;;;;110613;1255;42384;-65
2022/04/27 10:07:13;;;;;;;5.70;1.90;;;;;28.34;97429.40;;;;110453;1255;41552;-65
2022/04/27 10:09:42;;;;;;;5.60;2.00;;;;;27.96;97437.20;;;;110466;1255;41610;-65
2022/04/27 10:12:13;;;;;;;4.10;1.70;;;;;27.30;97448.80;;;;110550;1253;41257;-63
2022/04/27 10:14:43;;;;;;;5.80;1.90;;;;;26.20;97449.20;;;;110475;1253;41607;-65
2022/04/27 10:17:15;;;;;;;4.80;1.90;;;;;25.54;97449.00;;;;110741;1253;41176;-66
2022/04/27 10:19:49;;;;;;;5.30;2.00;;;;;24.82;97462.80;;;;110619;1254;41356;-66
2022/04/27 10:22:33;;;;;;;7.80;2.00;;;;;24.20;97468.80;;;;110619;1253;42390;-68
2022/04/27 10:25:09;;;;;;;5.40;1.80;;;;;23.08;97479.00;;;;110611;1253;41558;-69
2022/04/27 10:27:40;;;;;;;4.20;2.10;;;;;22.24;97490.00;;;;110528;1253;41323;-69
2022/04/27 10:30:13;;;;;;;3.10;1.60;;;;;21.54;97492.80;;;;110662;1253;41925;-67
2022/04/27 10:32:43;;;;;;;4.00;1.80;;;;;21.22;97502.20;;;;110632;1254;41270;-68
2022/04/27 10:35:12;;;;;;;6.40;2.30;;;;;20.90;97508.00;;;;110666;1253;41152;-69
2022/04/27 10:37:57;;;;;;;6.20;1.90;;;;;20.62;97510.60;;;;110676;1253;41629;-70
2022/04/27 10:40:36;;;;;;;5.50;2.20;;;;;20.22;97517.00;;;;110684;1253;41642;-68
2022/04/27 10:43:11;;;;;;;4.70;2.00;;;;;20.10;97523.60;;;;110546;1253;41269;-65
2022/04/27 10:45:42;;;;;;;3.40;1.50;;;;;19.88;97524.40;;;;110565;1254;41260;-67
2022/04/27 10:48:14;;;;;;;;;;;;;19.54;97534.20;;;;110547;1253;42175;-68
2022/04/27 10:51:02;;;;;;;7.90;2.90;;;;;19.20;97535.00;;;;110517;1253;41143;-67
2022/04/27 10:53:42;;;;;;;6.60;2.10;;;;;18.88;97537.60;;;;110698;1253;41150;-68
2022/04/27 10:56:31;;;;;;;6.70;2.90;;;;;18.60;97550.60;;;;110545;1254;41276;-68
2022/04/27 10:59:02;;;;;;;4.60;1.70;;;;;18.40;97551.80;;;;110461;1253;42275;-67
2022/04/27 11:01:31;;;;;;;5.70;2.40;;;;;18.40;97553.00;;;;110439;1253;42423;-69
2022/04/27 11:04:04;;;;;;;4.40;1.90;;;;;18.30;97552.80;;;;110510;1255;41693;-67
2022/04/27 11:06:59;;;;;;;7.00;2.60;;;;;18.20;97558.00;;;;110503;1256;42378;-67
2022/04/27 11:09:43;;;;;;;7.50;3.00;;;;;18.00;97559.40;;;;110503;1255;41147;-67
2022/04/27 11:12:13;;;;;;;6.70;2.60;;;;;18.00;97561.20;;;;110421;1255;41156;-69
2022/04/27 11:14:42;;;;;;;9.20;3.30;;;;;17.98;97568.80;;;;110485;1253;41367;-66
2022/04/27 11:17:11;;;;;;;7.10;3.10;;;;;17.80;97580.20;;;;110544;1253;41515;-68
2022/04/27 11:19:42;;;;;;;8.10;3.20;;;;;17.70;97578.20;;;;110451;1253;41159;-68
2022/04/27 11:22:14;;;;;;;7.60;3.10;;;;;17.50;97574.20;;;;110588;1253;41184;-68
2022/04/27 11:24:47;;;;;;;9.60;3.30;;;;;17.40;97569.00;;;;110586;1253;42100;-69
2022/04/27 11:27:29;;;;;;;7.40;3.00;;;;;17.40;97567.20;;;;110539;1256;42617;-68
2022/04/27 11:29:58;;;;;;;7.80;3.00;;;;;17.40;97560.20;;;;110388;1256;41182;-67
2022/04/27 11:32:30;;;;;;;6.50;2.90;;;;;17.60;97554.00;;;;110447;1253;41720;-67
2022/04/27 11:34:59;;;;;;;7.50;3.10;;;;;17.80;97547.40;;;;110450;1255;41162;-68
2022/04/27 11:37:28;;;;;;;7.00;2.80;;;;;17.94;97543.40;;;;110502;1256;41445;-68
2022/04/27 11:40:14;;;;;;;7.40;2.80;;;;;18.10;97532.20;;;;110446;1254;41151;-69
2022/04/27 11:42:46;;;;;;;6.20;2.60;;;;;18.42;97531.20;;;;110535;1253;41145;-69
2022/04/27 11:45:21;;;;;;;6.60;2.90;;;;;18.68;97525.80;;;;110547;1253;42318;-68
2022/04/27 11:47:58;;;;;;;7.60;3.30;;;;;18.70;97524.80;;;;110505;1253;41202;-69
2022/04/27 11:50:32;;;;;;;7.90;3.20;;;;;18.70;97525.00;;;;110515;1253;41251;-69
2022/04/27 11:53:11;;;;;;;8.10;3.00;;;;;18.60;97523.80;;;;110610;1253;41257;-67
2022/04/27 11:55:43;;;;;;;10.70;3.30;;;;;18.70;97521.80;;;;110638;1253;41999;-67
2022/04/27 11:58:23;;;;;;;7.60;3.10;;;;;18.80;97520.60;;;;110545;1254;41159;-66
2022/04/27 12:00:59;;;;;;;8.30;2.90;;;;;18.60;97517.00;;;;110495;1255;42118;-68
2022/04/27 12:03:30;;;;;;;5.30;2.60;;;;;18.62;97512.80;;;;110568;1253;41209;-68
2022/04/27 12:05:59;;;;;;;;;;;;;18.76;97506.40;;;;110613;1253;41258;-70
2022/04/27 12:08:28;;;;;;;7.40;3.20;;;;;18.74;97508.80;;;;110587;1253;41143;-69
2022/04/27 12:10:58;;;;;;;8.30;3.00;;;;;18.62;97501.40;;;;110513;1253;41690;-69
2022/04/27 12:13:28;;;;;;;8.40;3.10;;;;;18.70;97499.00;;;;110510;1253;41276;-70
2022/04/27 12:15:58;;;;;;;7.00;2.70;;;;;18.78;97500.20;;;;110549;1255;41687;-68
2022/04/27 12:18:28;;;;;;;6.50;2.70;;;;;18.80;97501.40;;;;110551;1253;41143;-67
2022/04/27 12:20:58;;;;;;;6.80;2.70;;;;;18.80;97506.00;;;;110537;1254;41142;-67
2022/04/27 12:23:29;;;;;;;8.00;3.90;;;;;18.84;97512.60;;;;110547;1254;41613;-66
2022/04/27 12:26:00;;;;;;;7.70;3.00;;;;;18.80;97518.60;;;;110658;1253;41755;-69
2022/04/27 12:28:34;;;;;;;7.40;3.00;;;;;18.60;97524.80;;;;110702;1253;41608;-70
2022/04/27 12:31:06;;;;;;;7.70;3.20;;;;;18.46;97533.20;;;;110688;1253;41224;-68
2022/04/27 12:33:43;;;;;;;7.40;3.10;;;;;18.30;97527.20;;;;110701;1253;41982;-68
2022/04/27 12:39:11;;;;;;;8.00;2.70;;;;;18.00;97515.00;;;;110598;1253;41248;-68
2022/04/27 12:41:43;;;;;;;8.60;2.60;;;;;18.00;97510.00;;;;110562;1253;41162;-67
2022/04/27 12:44:21;;;;;;;5.00;2.20;;;;;18.10;97517.40;;;;110588;1252;41298;-68
2022/04/27 12:46:59;;;;;;;5.80;2.30;;;;;18.30;97513.80;;;;110670;1253;41297;-67
2022/04/27 12:49:30;;;;;;;6.20;2.60;;;;;18.48;97514.80;;;;110551;1254;42134;-67
2022/04/27 12:52:35;;;;;;;6.40;2.60;;;;;18.64;97517.40;;;;110591;1253;41152;-69
2022/04/27 12:55:07;;;;;;;6.60;2.90;;;;;18.80;97510.20;;;;110669;1254;42289;-68
2022/04/27 12:57:49;;;;;;;7.20;2.50;;;;;18.90;97504.40;;;;110695;1253;41257;-69
2022/04/27 13:00:39;;;;;;;6.60;2.40;;;;;19.00;97499.40;;;;110700;1253;41265;-66
2022/04/27 13:03:09;;;;;;;4.90;2.10;;;;;19.02;97495.60;;;;110577;1253;41389;-69
2022/04/27 13:05:43;;;;;;;6.00;2.20;;;;;19.18;97494.20;;;;110549;1254;41815;-68
2022/04/27 13:08:12;;;;;;;4.40;1.80;;;;;19.40;97492.60;;;;110550;1253;41175;-68